Clancy, MT

9:35 AM MST on February 07, 2016 (GMT -0700)
Saddle Mountain | | Change Station
CLOSE
Current Station
Personal Weather Station
Location: Montana City, MT
Elevation: 4659 ft
Nearby Weather Stations

Elev 4659 ft 46.52 °N, 111.92 °W | Updated 1 minute ago

Snow
Snow
27.9 °F
Feels Like 28 °F
N
0.0
Wind Variable Wind from NNE
Gusts 0.0 mph

Today
High -- | Low -- °F
--% Chance of Precip.
Yesterday
High -- | Low -- °F
Precip. -- in
Pressure 30.63 in
Visibility 10.0 miles
Clouds Clear
Windchill 28 °F
Dew Point 14 °F
Humidity 55%
Rainfall 0.00 in
Snow Depth Not available.
7:43 AM 5:40 PM
Waning Crescent, 1% visible
METAR KHLN 071553Z 27006KT 10SM CLR 00/M08 A3049 RMK AO2 SLP371 T00001083
Pressure 30.63 in
Visibility 10.0 miles
Clouds Clear
Windchill 28 °F
Dew Point 14 °F
Humidity 55%
Rainfall 0.00 in
Snow Depth Not available.
7:43 AM 5:40 PM
Waning Crescent, 1% visible
METAR KHLN 071553Z 27006KT 10SM CLR 00/M08 A3049 RMK AO2 SLP371 T00001083

10-Day Weather Forecast

Almanac

Astronomy

Feb. 07, 2016 Rise Set
Actual Time
Civil Twilight
Nautical Twilight
Astronomical Twilight
Moon
Length of Visible Light
Length of Day
Tomorrow will be .
, % of the Moon is Illuminated

Today's Extremes

State Highs State Lows

Community

WunderPhotos

Upload Photos

1,891,228 photos uploaded!

WunderBlog® & News

Nearby

Air Quality

  Air Quality AQ Index Pollutant
Not available.

Snow Depth

Station Depth Elevation

Earthquake Activity

City Distance Mag. Time & Date
Minimum magnitude displayed is 2.5.

Coastal Water Temperatures

Place Temperature

Stations

Nearby Weather Stations

Station Location Temp. Windchill Dew Point Humidity Wind Precip. Elev Updated Type
                   

Watches & Warnings

There are currently no watches in effect.